Terminal Aerodrome Forecast
Issued by NWS Sioux Falls, SD

Home | Current Version | Previous Version | Graphics & Text | Print | Product List | Glossary Off
Versions: 1 2 3 4 5 6 7 8 9 10 11 12 13 14 15

000
FTUS43 KFSD 152300
TAFHON
TAF
KHON 152336Z 1600/1624 15017G24KT P6SM BKN150
     FM160500 12015G21KT P6SM OVC100
     FM160900 09010KT P6SM SCT040 OVC070
     FM161200 04012KT P6SM SCT015 OVC040
     FM161400 01017G24KT 3SM -SNRA OVC015
     FM161900 35021G30KT P6SM BKN025=

USA.gov is the U.S. government's official web portal to all federal, state and local government web resources and services.